createdAt,value
2022-09-15T00:18:40.072Z,19.30
2022-09-15T00:21:21.109Z,19.30
2022-09-15T00:39:54.995Z,19.20
2022-09-15T00:42:24.339Z,19.20
2022-09-15T00:44:56.212Z,19.20
2022-09-15T00:47:28.486Z,19.20
2022-09-15T00:50:02.293Z,19.20
2022-09-15T00:52:38.588Z,19.10
2022-09-15T00:55:13.922Z,19.20
2022-09-15T00:57:47.522Z,19.20
2022-09-15T01:03:03.146Z,19.20
2022-09-15T01:05:36.886Z,19.20
2022-09-15T01:08:10.603Z,19.20
2022-09-15T01:10:41.919Z,19.20
2022-09-15T01:13:13.128Z,19.20
2022-09-15T01:15:55.790Z,19.20
2022-09-15T01:18:36.150Z,19.20
2022-09-15T01:21:22.955Z,19.20
2022-09-15T01:24:17.705Z,19.20
2022-09-15T01:26:59.566Z,19.20
2022-09-15T01:29:55.015Z,19.20
2022-09-15T01:32:46.081Z,19.20
2022-09-15T01:35:23.596Z,19.20
2022-09-15T01:37:56.751Z,19.10
2022-09-15T01:40:28.747Z,19.10
2022-09-15T01:42:57.753Z,19.20
2022-09-15T01:45:31.629Z,19.20
2022-09-15T01:48:02.556Z,19.10
2022-09-15T01:50:48.122Z,19.10
2022-09-15T01:53:19.067Z,19.20
2022-09-15T01:55:53.462Z,19.20
2022-09-15T01:58:22.080Z,19.20
2022-09-15T02:00:56.644Z,19.20
2022-09-15T02:03:33.673Z,19.20
2022-09-15T02:06:07.621Z,19.20
2022-09-15T02:08:45.263Z,19.20
2022-09-15T02:11:17.304Z,19.20
2022-09-15T02:13:57.777Z,19.10
2022-09-15T02:16:31.261Z,19.10
2022-09-15T02:19:11.195Z,19.10
2022-09-15T02:21:55.038Z,19.10
2022-09-15T02:24:29.838Z,19.10
2022-09-15T02:26:59.545Z,19.10
2022-09-15T02:29:29.269Z,19.10
2022-09-15T02:32:06.865Z,19.10
2022-09-15T02:34:38.384Z,19.10
2022-09-15T02:37:07.648Z,19.10
2022-09-15T02:39:39.909Z,19.10
2022-09-15T02:42:08.645Z,19.10
2022-09-15T02:44:37.090Z,19.10
2022-09-15T02:47:07.126Z,19.10
2022-09-15T02:49:35.414Z,19.10
2022-09-15T02:52:04.401Z,19.10
2022-09-15T02:54:32.810Z,19.00
2022-09-15T02:57:01.166Z,19.00
2022-09-15T02:59:50.585Z,19.00
2022-09-15T03:02:20.812Z,19.10
2022-09-15T03:04:49.776Z,19.10
2022-09-15T03:07:18.697Z,19.10
2022-09-15T03:09:47.265Z,19.10
2022-09-15T03:12:15.974Z,19.10
2022-09-15T03:14:44.520Z,19.10
2022-09-15T03:17:12.768Z,19.10
2022-09-15T03:19:42.422Z,19.10
2022-09-15T03:22:11.071Z,19.10
2022-09-15T03:24:42.226Z,19.10
2022-09-15T03:27:10.555Z,19.10
2022-09-15T03:29:38.817Z,19.00
2022-09-15T03:32:07.484Z,19.00
2022-09-15T03:34:36.109Z,19.00
2022-09-15T03:37:05.816Z,19.00
2022-09-15T03:39:34.093Z,19.00
2022-09-15T03:42:02.336Z,18.90
2022-09-15T03:44:30.637Z,18.90
2022-09-15T03:46:59.248Z,18.90
2022-09-15T03:49:27.515Z,18.90
2022-09-15T03:51:55.905Z,18.90
2022-09-15T03:54:25.972Z,18.90
2022-09-15T03:56:54.597Z,18.80
2022-09-15T03:59:22.907Z,18.80
2022-09-15T04:01:51.519Z,18.80
2022-09-15T04:04:19.810Z,18.70
2022-09-15T04:06:48.174Z,18.70
2022-09-15T04:09:16.479Z,18.80
2022-09-15T04:11:46.226Z,18.70
2022-09-15T04:14:14.504Z,18.70
2022-09-15T04:16:42.891Z,18.70
2022-09-15T04:19:11.754Z,18.70
2022-09-15T04:21:40.034Z,18.70
2022-09-15T04:24:08.590Z,18.70
2022-09-15T04:26:38.410Z,18.70
2022-09-15T04:29:14.504Z,18.60
2022-09-15T04:31:43.107Z,18.60
2022-09-15T04:34:11.679Z,18.70
2022-09-15T04:36:40.061Z,18.70
2022-09-15T04:39:08.362Z,18.70
2022-09-15T04:41:36.766Z,18.70
2022-09-15T04:44:05.156Z,18.70
2022-09-15T04:46:34.898Z,18.70
2022-09-15T04:49:03.588Z,18.70
2022-09-15T04:51:31.941Z,18.70
2022-09-15T04:54:00.385Z,18.70
2022-09-15T04:56:29.034Z,18.60
2022-09-15T04:59:03.611Z,18.60
2022-09-15T05:01:36.263Z,18.60
2022-09-15T05:04:05.948Z,18.60
2022-09-15T05:06:35.870Z,18.60
2022-09-15T05:09:10.034Z,18.60
2022-09-15T05:11:39.327Z,18.60
2022-09-15T05:14:09.602Z,18.50
2022-09-15T05:16:40.116Z,18.50
2022-09-15T05:19:09.074Z,18.40
2022-09-15T05:21:37.630Z,18.30
2022-09-15T05:24:06.440Z,18.40
2022-09-15T05:26:34.831Z,18.30
2022-09-15T05:29:03.207Z,18.30
2022-09-15T05:31:33.780Z,18.40
2022-09-15T05:34:06.075Z,18.40
2022-09-15T05:36:35.062Z,18.40
2022-09-15T05:39:03.466Z,18.40
2022-09-15T05:41:31.881Z,18.30
2022-09-15T05:44:00.814Z,18.30
2022-09-15T07:49:30.047Z,19.70
2022-09-15T15:18:56.880Z,20.90
2022-09-15T15:21:55.587Z,20.70
2022-09-15T15:24:47.243Z,20.70
2022-09-15T17:31:14.977Z,18.50
2022-09-15T17:34:12.959Z,18.40
2022-09-15T19:05:21.939Z,16.90
2022-09-15T20:57:33.642Z,15.80
2022-09-15T21:00:07.863Z,15.80
2022-09-15T21:02:37.068Z,15.80
2022-09-15T21:05:06.817Z,15.70
2022-09-15T21:07:56.039Z,15.80
2022-09-15T21:10:28.550Z,15.80
2022-09-15T21:13:33.105Z,15.70
2022-09-15T21:16:06.837Z,15.70
2022-09-15T21:18:40.683Z,15.70
2022-09-15T21:21:12.602Z,15.70
2022-09-15T21:23:46.930Z,15.80
2022-09-15T21:26:18.491Z,15.80
2022-09-15T21:29:10.053Z,15.80
2022-09-15T21:31:39.035Z,15.80
2022-09-15T21:34:08.496Z,15.80
2022-09-15T21:36:38.574Z,15.70
2022-09-15T21:39:07.743Z,15.70
2022-09-15T21:41:36.097Z,15.70
2022-09-15T21:44:04.493Z,15.70
2022-09-15T21:46:35.504Z,15.70
2022-09-15T21:49:03.913Z,15.60
2022-09-15T21:51:32.266Z,15.60
2022-09-15T21:54:01.513Z,15.60
2022-09-15T21:56:30.834Z,15.50
2022-09-15T21:58:59.336Z,15.50
2022-09-15T22:01:30.277Z,15.40
2022-09-15T22:04:01.553Z,15.40
2022-09-15T22:06:31.877Z,15.40
2022-09-15T22:09:00.614Z,15.30
2022-09-15T22:11:29.553Z,15.30
2022-09-15T22:13:58.584Z,15.20
2022-09-15T22:16:27.146Z,15.20
2022-09-15T22:19:02.098Z,15.20
2022-09-15T22:21:32.639Z,15.20
2022-09-15T22:24:01.097Z,15.20
2022-09-15T22:26:36.613Z,15.20
2022-09-15T22:29:06.340Z,15.10
2022-09-15T22:31:35.800Z,15.10
2022-09-15T22:34:06.885Z,15.10
2022-09-15T22:36:38.862Z,15.10
2022-09-15T22:39:08.337Z,15.10
2022-09-15T22:41:38.878Z,15.00
2022-09-15T22:44:09.170Z,15.10
2022-09-15T22:46:37.584Z,15.00
2022-09-15T22:49:09.170Z,15.00
2022-09-15T22:51:37.970Z,15.00
2022-09-15T22:54:07.118Z,15.00
2022-09-15T22:57:13.187Z,15.00
2022-09-15T22:59:46.839Z,14.90
2022-09-15T23:02:15.931Z,14.90
2022-09-15T23:04:46.100Z,14.80
2022-09-15T23:07:16.671Z,14.80
2022-09-15T23:09:45.749Z,14.70
2022-09-15T23:12:15.481Z,14.70
2022-09-15T23:14:44.839Z,14.60
2022-09-15T23:17:14.011Z,14.60
2022-09-15T23:19:59.315Z,14.50
2022-09-15T23:22:28.106Z,14.50
2022-09-15T23:24:57.600Z,14.40
2022-09-15T23:27:26.472Z,14.30
2022-09-15T23:29:55.501Z,14.30
2022-09-15T23:32:24.429Z,14.30
2022-09-15T23:34:53.527Z,14.30
2022-09-15T23:37:23.666Z,14.30
2022-09-15T23:39:52.417Z,14.30
2022-09-15T23:42:20.747Z,14.40
2022-09-15T23:44:49.026Z,14.40
2022-09-15T23:47:17.308Z,14.50
2022-09-15T23:49:45.580Z,14.50
2022-09-15T23:52:13.827Z,14.50
2022-09-15T23:54:44.005Z,14.50
2022-09-15T23:57:12.343Z,14.50
2022-09-15T23:59:40.637Z,14.50
